createdAt,value
2023-06-14T00:00:46.035Z,95341.00
2023-06-14T00:01:46.051Z,95341.00
2023-06-14T00:02:46.150Z,95339.00
2023-06-14T00:03:46.073Z,95337.00
2023-06-14T00:04:46.016Z,95335.00
2023-06-14T00:05:45.004Z,95335.00
2023-06-14T00:06:44.983Z,95335.00
2023-06-14T00:07:45.988Z,95337.00
2023-06-14T00:08:45.969Z,95339.00
2023-06-14T00:09:45.949Z,95337.00
2023-06-14T00:10:44.960Z,95339.00
2023-06-14T00:11:44.980Z,95337.00
2023-06-14T00:12:45.950Z,95339.00
2023-06-14T00:13:45.961Z,95335.00
2023-06-14T00:14:45.925Z,95339.00
2023-06-14T00:15:45.921Z,95341.00
2023-06-14T00:16:46.009Z,95341.00
2023-06-14T00:17:45.960Z,95339.00
2023-06-14T00:18:44.901Z,95341.00
2023-06-14T00:19:44.907Z,95337.00
2023-06-14T00:20:44.898Z,95339.00
2023-06-14T00:21:45.896Z,95339.00
2023-06-14T00:22:45.888Z,95337.00
2023-06-14T00:23:45.937Z,95335.00
2023-06-14T00:24:45.885Z,95337.00
2023-06-14T00:25:45.911Z,95337.00
2023-06-14T00:26:45.945Z,95335.00
2023-06-14T00:27:45.012Z,95335.00
2023-06-14T00:28:46.047Z,95335.00
2023-06-14T00:29:46.128Z,95335.00
2023-06-14T00:30:46.095Z,95333.00
2023-06-14T00:31:45.201Z,95331.00
2023-06-14T00:32:46.227Z,95331.00
2023-06-14T00:33:46.272Z,95335.00
2023-06-14T00:34:45.277Z,95331.00
2023-06-14T00:35:46.341Z,95331.00
2023-06-14T00:36:46.356Z,95331.00
2023-06-14T00:37:45.424Z,95333.00
2023-06-14T00:38:46.469Z,95333.00
2023-06-14T00:39:45.515Z,95331.00
2023-06-14T00:40:46.560Z,95333.00
2023-06-14T00:41:46.585Z,95331.00
2023-06-14T00:42:46.756Z,95333.00
2023-06-14T00:43:46.697Z,95331.00
2023-06-14T00:44:46.734Z,95330.00
2023-06-14T00:45:46.785Z,95330.00
2023-06-14T00:46:46.922Z,95330.00
2023-06-14T00:47:46.895Z,95331.00
2023-06-14T00:48:46.930Z,95331.00
2023-06-14T00:49:46.951Z,95331.00
2023-06-14T00:50:47.052Z,95330.00
2023-06-14T00:51:47.068Z,95330.00
2023-06-14T00:52:47.100Z,95330.00
2023-06-14T00:53:46.166Z,95331.00
2023-06-14T00:54:47.198Z,95331.00
2023-06-14T00:55:47.246Z,95333.00
2023-06-14T00:56:47.297Z,95333.00
2023-06-14T00:57:46.388Z,95333.00
2023-06-14T00:58:46.399Z,95333.00
2023-06-14T00:59:47.486Z,95331.00
2023-06-14T01:00:47.518Z,95335.00
2023-06-14T01:01:47.658Z,95335.00
2023-06-14T01:02:47.669Z,95337.00
2023-06-14T01:03:47.701Z,95333.00
2023-06-14T01:04:47.684Z,95333.00
2023-06-14T01:05:46.743Z,95335.00
2023-06-14T01:06:47.788Z,95335.00
2023-06-14T01:07:47.898Z,95333.00
2023-06-14T01:08:46.900Z,95335.00
2023-06-14T01:09:46.968Z,95335.00
2023-06-14T01:10:48.007Z,95339.00
2023-06-14T01:11:48.045Z,95337.00
2023-06-14T01:12:48.103Z,95339.00
2023-06-14T01:13:47.184Z,95339.00
2023-06-14T01:14:48.226Z,95339.00
2023-06-14T01:15:47.303Z,95339.00
2023-06-14T01:16:47.353Z,95343.00
2023-06-14T01:17:48.399Z,95339.00
2023-06-14T01:18:48.452Z,95343.00
2023-06-14T01:19:48.518Z,95341.00
2023-06-14T01:20:48.569Z,95341.00
2023-06-14T01:21:48.600Z,95339.00
2023-06-14T01:22:47.687Z,95335.00
2023-06-14T01:23:48.740Z,95335.00
2023-06-14T01:24:48.760Z,95333.00
2023-06-14T01:25:48.868Z,95333.00
2023-06-14T01:26:47.870Z,95333.00
2023-06-14T01:27:47.971Z,95333.00
2023-06-14T01:28:48.996Z,95330.00
2023-06-14T01:29:49.058Z,95330.00
2023-06-14T01:30:48.126Z,95330.00
2023-06-14T01:31:48.195Z,95330.00
2023-06-14T01:32:49.315Z,95330.00
2023-06-14T01:33:49.295Z,95328.00
2023-06-14T01:34:49.513Z,95326.00
2023-06-14T01:35:49.426Z,95328.00
2023-06-14T01:36:49.495Z,95328.00
2023-06-14T01:37:48.584Z,95328.00
2023-06-14T01:38:49.612Z,95331.00
2023-06-14T01:39:49.690Z,95331.00
2023-06-14T01:40:49.786Z,95330.00
2023-06-14T01:41:49.818Z,95330.00
2023-06-14T01:42:49.881Z,95330.00
2023-06-14T01:43:49.930Z,95328.00
2023-06-14T01:44:48.997Z,95324.00
2023-06-14T01:45:49.091Z,95326.00
2023-06-14T01:46:50.132Z,95326.00
2023-06-14T01:47:49.270Z,95328.00
2023-06-14T01:48:50.257Z,95328.00
2023-06-14T01:49:50.318Z,95326.00
2023-06-14T01:50:49.389Z,95326.00
2023-06-14T01:51:50.457Z,95326.00
2023-06-14T01:52:50.524Z,95326.00
2023-06-14T01:53:49.598Z,95328.00
2023-06-14T01:54:50.645Z,95326.00
2023-06-14T01:55:50.657Z,95328.00
2023-06-14T01:56:50.699Z,95326.00
2023-06-14T01:57:50.746Z,95326.00
2023-06-14T01:58:49.773Z,95326.00
2023-06-14T01:59:49.800Z,95326.00
2023-06-14T02:00:50.844Z,95328.00
2023-06-14T02:01:49.938Z,95330.00
2023-06-14T02:02:51.053Z,95328.00
2023-06-14T02:03:51.058Z,95330.00
2023-06-14T02:04:51.017Z,95331.00
2023-06-14T02:05:51.107Z,95330.00
2023-06-14T02:06:50.143Z,95333.00
2023-06-14T02:07:50.158Z,95330.00
2023-06-14T02:08:51.240Z,95331.00
2023-06-14T02:09:50.227Z,95330.00
2023-06-14T02:10:51.294Z,95331.00
2023-06-14T02:11:51.318Z,95330.00
2023-06-14T02:12:51.397Z,95330.00
2023-06-14T02:13:50.409Z,95330.00
2023-06-14T02:14:51.472Z,95331.00
2023-06-14T02:15:51.572Z,95331.00
2023-06-14T02:16:51.545Z,95333.00
2023-06-14T02:17:51.659Z,95333.00
2023-06-14T02:18:51.662Z,95335.00
2023-06-14T02:19:51.768Z,95331.00
2023-06-14T02:20:51.756Z,95331.00
2023-06-14T02:21:51.798Z,95333.00
2023-06-14T02:22:51.868Z,95333.00
2023-06-14T02:23:51.956Z,95335.00
2023-06-14T02:24:59.394Z,95333.00
2023-06-14T02:25:51.990Z,95335.00
2023-06-14T02:26:50.962Z,95337.00
2023-06-14T02:27:51.956Z,95333.00
2023-06-14T02:28:51.937Z,95335.00
2023-06-14T02:29:50.934Z,95337.00
2023-06-14T02:30:50.909Z,95331.00
2023-06-14T02:31:51.969Z,95335.00
2023-06-14T02:32:51.951Z,95341.00
2023-06-14T02:33:51.914Z,95339.00
2023-06-14T02:34:51.889Z,95335.00
2023-06-14T02:35:50.912Z,95341.00
2023-06-14T02:36:50.894Z,95337.00
2023-06-14T02:37:51.882Z,95337.00
2023-06-14T02:38:51.900Z,95339.00
2023-06-14T02:39:51.875Z,95337.00
2023-06-14T02:40:51.848Z,95339.00
2023-06-14T02:41:51.838Z,95337.00
2023-06-14T02:42:51.856Z,95339.00
2023-06-14T02:43:50.826Z,95341.00
2023-06-14T02:44:51.823Z,95341.00
2023-06-14T02:45:50.824Z,95341.00
2023-06-14T02:46:51.847Z,95341.00
2023-06-14T02:47:50.864Z,95341.00
2023-06-14T02:48:51.856Z,95341.00
2023-06-14T02:49:51.883Z,95341.00
2023-06-14T02:50:50.909Z,95343.00
2023-06-14T02:51:51.981Z,95345.00
2023-06-14T02:52:51.044Z,95347.00
2023-06-14T02:53:52.111Z,95345.00
2023-06-14T02:54:52.122Z,95347.00
2023-06-14T02:55:51.173Z,95343.00
2023-06-14T02:56:52.213Z,95345.00
2023-06-14T02:57:52.258Z,95343.00
2023-06-14T02:58:52.321Z,95341.00
2023-06-14T02:59:52.395Z,95343.00
2023-06-14T03:00:51.407Z,95341.00
2023-06-14T03:01:52.431Z,95339.00
2023-06-14T03:02:51.561Z,95339.00
2023-06-14T03:03:51.592Z,95339.00
2023-06-14T03:04:51.554Z,95337.00
2023-06-14T03:05:51.589Z,95339.00
2023-06-14T03:06:52.626Z,95339.00
2023-06-14T03:07:52.697Z,95339.00
2023-06-14T03:08:51.678Z,95339.00
2023-06-14T03:09:52.714Z,95341.00
2023-06-14T03:10:52.752Z,95339.00
2023-06-14T03:11:51.791Z,95339.00
2023-06-14T03:12:52.829Z,95337.00
2023-06-14T03:13:52.874Z,95341.00
2023-06-14T03:14:52.885Z,95341.00
2023-06-14T03:15:53.045Z,95343.00
2023-06-14T03:16:52.987Z,95345.00
2023-06-14T03:17:52.016Z,95345.00
2023-06-14T03:18:53.206Z,95347.00
2023-06-14T03:19:53.054Z,95345.00
2023-06-14T03:20:53.093Z,95347.00
2023-06-14T03:21:53.088Z,95349.00
2023-06-14T03:22:53.121Z,95349.00
2023-06-14T03:23:53.229Z,95351.00
2023-06-14T03:24:53.136Z,95351.00
2023-06-14T03:25:53.162Z,95353.00
2023-06-14T03:26:53.180Z,95353.00
2023-06-14T03:27:53.210Z,95353.00
2023-06-14T03:28:53.236Z,95357.00
2023-06-14T03:29:52.232Z,95357.00
2023-06-14T03:30:52.259Z,95357.00
2023-06-14T03:31:53.277Z,95359.00
2023-06-14T03:32:53.301Z,95357.00
2023-06-14T03:33:52.302Z,95359.00
2023-06-14T03:34:53.297Z,95359.00
2023-06-14T03:35:53.292Z,95357.00
2023-06-14T03:36:53.299Z,95357.00
2023-06-14T03:37:53.315Z,95357.00
2023-06-14T03:38:52.327Z,95359.00
2023-06-14T03:39:53.355Z,95361.00
2023-06-14T03:40:53.324Z,95357.00
2023-06-14T03:41:52.339Z,95359.00
2023-06-14T03:42:53.345Z,95361.00
2023-06-14T03:43:53.348Z,95359.00
2023-06-14T03:44:53.334Z,95363.00
2023-06-14T03:45:53.332Z,95363.00
2023-06-14T03:46:53.360Z,95365.00
2023-06-14T03:47:53.391Z,95365.00
2023-06-14T03:48:53.365Z,95367.00
2023-06-14T03:49:52.398Z,95369.00
2023-06-14T03:50:53.381Z,95373.00
2023-06-14T03:51:53.356Z,95377.00
2023-06-14T03:52:52.368Z,95378.00
2023-06-14T03:54:11.360Z,95377.00
2023-06-14T03:56:52.333Z,95380.00
2023-06-14T03:57:53.318Z,95378.00
2023-06-14T03:58:53.320Z,95380.00
2023-06-14T03:59:53.307Z,95380.00
2023-06-14T04:00:53.294Z,95382.00
2023-06-14T04:01:53.283Z,95382.00
2023-06-14T04:02:53.388Z,95384.00
2023-06-14T04:03:53.399Z,95386.00
2023-06-14T04:04:53.265Z,95384.00
2023-06-14T04:05:53.334Z,95388.00
2023-06-14T04:06:53.280Z,95390.00
2023-06-14T04:07:53.255Z,95392.00
2023-06-14T04:08:53.254Z,95396.00
2023-06-14T04:09:53.227Z,95396.00
2023-06-14T04:10:52.216Z,95398.00
2023-06-14T04:11:52.645Z,95396.00
2023-06-14T04:12:53.262Z,95398.00
2023-06-14T04:13:53.236Z,95398.00
2023-06-14T04:14:53.340Z,95394.00
2023-06-14T04:15:53.237Z,95398.00
2023-06-14T04:16:53.276Z,95398.00
2023-06-14T04:17:53.278Z,95404.00
2023-06-14T04:18:53.223Z,95400.00
2023-06-14T04:19:53.169Z,95398.00
2023-06-14T04:20:53.165Z,95402.00
2023-06-14T04:21:53.262Z,95402.00
2023-06-14T04:22:53.166Z,95400.00
2023-06-14T04:23:53.187Z,95402.00
2023-06-14T04:24:57.677Z,95398.00
2023-06-14T04:25:53.131Z,95400.00
2023-06-14T04:26:52.132Z,95400.00
2023-06-14T04:27:52.150Z,95400.00
2023-06-14T04:28:52.107Z,95400.00
2023-06-14T04:29:53.096Z,95400.00
2023-06-14T04:30:52.111Z,95400.00
2023-06-14T04:31:52.100Z,95402.00
2023-06-14T04:32:53.181Z,95400.00
2023-06-14T04:33:53.145Z,95404.00
2023-06-14T04:34:53.073Z,95406.00
2023-06-14T04:35:53.072Z,95402.00
2023-06-14T04:36:53.061Z,95402.00
2023-06-14T04:37:53.039Z,95402.00
2023-06-14T04:38:53.047Z,95406.00
2023-06-14T04:39:52.044Z,95408.00
2023-06-14T04:40:53.045Z,95408.00
2023-06-14T04:41:53.024Z,95412.00
2023-06-14T04:42:53.045Z,95414.00
2023-06-14T04:43:53.021Z,95410.00
2023-06-14T04:44:51.999Z,95412.00
2023-06-14T04:45:53.048Z,95414.00
2023-06-14T04:46:52.986Z,95416.00
2023-06-14T04:47:52.995Z,95416.00
2023-06-14T04:48:52.997Z,95418.00
2023-06-14T04:49:52.985Z,95420.00
2023-06-14T04:50:52.961Z,95420.00
2023-06-14T04:51:52.962Z,95420.00
2023-06-14T04:52:52.955Z,95420.00
2023-06-14T04:53:52.944Z,95422.00
2023-06-14T04:54:52.944Z,95418.00
2023-06-14T04:55:52.956Z,95416.00
2023-06-14T04:56:51.935Z,95416.00
2023-06-14T04:57:52.904Z,95412.00
2023-06-14T04:58:52.912Z,95412.00
2023-06-14T04:59:52.948Z,95414.00
2023-06-14T05:00:52.929Z,95412.00
2023-06-14T05:01:52.974Z,95414.00
2023-06-14T05:02:52.140Z,95412.00
2023-06-14T05:03:52.054Z,95408.00
2023-06-14T05:04:52.055Z,95408.00
2023-06-14T05:05:53.057Z,95408.00
2023-06-14T05:06:53.134Z,95410.00
2023-06-14T05:07:53.149Z,95410.00
2023-06-14T05:08:53.152Z,95408.00
2023-06-14T05:09:53.167Z,95408.00
2023-06-14T05:10:52.234Z,95406.00
2023-06-14T05:11:52.264Z,95406.00
2023-06-14T05:12:53.314Z,95404.00
2023-06-14T05:13:53.412Z,95402.00
2023-06-14T05:14:53.424Z,95402.00
2023-06-14T05:15:53.521Z,95402.00
2023-06-14T05:16:53.509Z,95402.00
2023-06-14T05:17:53.590Z,95402.00
2023-06-14T05:18:53.624Z,95408.00
2023-06-14T05:19:53.660Z,95408.00
2023-06-14T05:20:52.662Z,95410.00
2023-06-14T05:21:53.704Z,95406.00
2023-06-14T05:22:53.725Z,95408.00
2023-06-14T05:23:53.735Z,95404.00
2023-06-14T05:24:53.729Z,95408.00
2023-06-14T05:25:52.746Z,95406.00
2023-06-14T05:26:53.809Z,95404.00
2023-06-14T05:27:52.779Z,95404.00
2023-06-14T05:28:53.841Z,95404.00
2023-06-14T05:29:53.807Z,95404.00
2023-06-14T05:30:53.826Z,95406.00
2023-06-14T05:31:53.946Z,95404.00
2023-06-14T05:32:53.920Z,95408.00
2023-06-14T05:33:53.950Z,95412.00
2023-06-14T05:34:53.934Z,95412.00
2023-06-14T05:35:54.010Z,95408.00
2023-06-14T05:36:54.025Z,95410.00
2023-06-14T05:37:54.025Z,95410.00
2023-06-14T05:38:54.070Z,95410.00
2023-06-14T05:39:54.102Z,95412.00
2023-06-14T05:40:54.129Z,95418.00
2023-06-14T05:41:54.166Z,95414.00
2023-06-14T05:42:54.198Z,95418.00
2023-06-14T05:43:54.195Z,95416.00
2023-06-14T05:44:53.229Z,95416.00
2023-06-14T05:45:54.246Z,95418.00
2023-06-14T05:46:54.418Z,95422.00
2023-06-14T05:47:53.422Z,95422.00
2023-06-14T05:48:54.373Z,95422.00
2023-06-14T05:49:54.399Z,95422.00
2023-06-14T05:50:54.385Z,95425.00
2023-06-14T05:51:53.428Z,95425.00
2023-06-14T05:52:54.476Z,95425.00
2023-06-14T05:53:54.526Z,95424.00
2023-06-14T05:54:54.600Z,95422.00
2023-06-14T05:55:54.588Z,95425.00
2023-06-14T05:56:54.626Z,95422.00
2023-06-14T05:57:54.658Z,95424.00
2023-06-14T05:58:53.727Z,95422.00
2023-06-14T05:59:53.698Z,95422.00
2023-06-14T06:00:53.721Z,95422.00
2023-06-14T06:01:53.755Z,95422.00
2023-06-14T06:02:54.836Z,95422.00
2023-06-14T06:03:55.238Z,95422.00
2023-06-14T06:04:53.735Z,95425.00
2023-06-14T06:05:54.798Z,95422.00
2023-06-14T06:06:53.794Z,95424.00
2023-06-14T06:07:53.797Z,95420.00
2023-06-14T06:08:54.827Z,95420.00
2023-06-14T06:09:54.878Z,95418.00
2023-06-14T06:10:54.930Z,95422.00
2023-06-14T06:11:55.011Z,95420.00
2023-06-14T06:12:54.976Z,95422.00
2023-06-14T06:13:54.996Z,95422.00
2023-06-14T06:14:54.002Z,95420.00
2023-06-14T06:15:55.005Z,95424.00
2023-06-14T06:16:55.128Z,95425.00
2023-06-14T06:17:56.482Z,95425.00
2023-06-14T06:18:55.112Z,95425.00
2023-06-14T06:19:55.127Z,95427.00
2023-06-14T06:20:55.165Z,95429.00
2023-06-14T06:21:55.091Z,95429.00
2023-06-14T06:22:55.088Z,95429.00
2023-06-14T06:23:55.111Z,95431.00
2023-06-14T06:24:55.124Z,95429.00
2023-06-14T06:25:55.070Z,95429.00
2023-06-14T06:26:55.091Z,95425.00
2023-06-14T06:27:55.037Z,95427.00
2023-06-14T06:28:55.069Z,95424.00
2023-06-14T06:29:55.029Z,95427.00
2023-06-14T06:30:55.054Z,95429.00
2023-06-14T06:31:55.046Z,95425.00
2023-06-14T06:32:55.072Z,95427.00
2023-06-14T06:33:54.991Z,95427.00
2023-06-14T06:34:54.985Z,95427.00
2023-06-14T06:35:54.011Z,95427.00
2023-06-14T06:36:55.015Z,95425.00
2023-06-14T06:37:54.980Z,95427.00
2023-06-14T06:38:53.957Z,95427.00
2023-06-14T06:39:55.020Z,95425.00
2023-06-14T06:40:54.951Z,95424.00
2023-06-14T06:41:53.961Z,95425.00
2023-06-14T06:42:54.929Z,95424.00
2023-06-14T06:43:54.936Z,95424.00
2023-06-14T06:44:54.930Z,95424.00
2023-06-14T06:45:54.976Z,95425.00
2023-06-14T06:46:54.928Z,95424.00
2023-06-14T06:47:54.946Z,95425.00
2023-06-14T06:48:54.890Z,95422.00
2023-06-14T06:49:54.906Z,95424.00
2023-06-14T06:50:54.876Z,95420.00
2023-06-14T06:51:54.910Z,95420.00
2023-06-14T06:52:54.895Z,95416.00
2023-06-14T06:53:53.869Z,95416.00
2023-06-14T06:54:54.963Z,95418.00
2023-06-14T06:55:54.894Z,95418.00
2023-06-14T06:56:54.840Z,95418.00
2023-06-14T06:57:54.988Z,95420.00
2023-06-14T06:58:53.815Z,95418.00
2023-06-14T06:59:54.849Z,95420.00
2023-06-14T07:00:54.812Z,95420.00
2023-06-14T07:01:55.197Z,95418.00
2023-06-14T07:02:54.941Z,95418.00
2023-06-14T07:03:54.962Z,95422.00
2023-06-14T07:04:55.005Z,95420.00
2023-06-14T07:05:54.070Z,95420.00
2023-06-14T07:06:55.070Z,95416.00
2023-06-14T07:07:57.769Z,95418.00
2023-06-14T07:08:55.165Z,95420.00
2023-06-14T07:09:55.120Z,95418.00
2023-06-14T07:10:55.121Z,95420.00
2023-06-14T07:11:55.109Z,95416.00
2023-06-14T07:12:55.165Z,95416.00
2023-06-14T07:13:54.091Z,95418.00
2023-06-14T07:14:55.155Z,95418.00
2023-06-14T07:15:55.092Z,95420.00
2023-06-14T07:16:55.077Z,95420.00
2023-06-14T07:17:55.083Z,95420.00
2023-06-14T07:18:55.067Z,95422.00
2023-06-14T07:19:55.081Z,95422.00
2023-06-14T07:20:54.046Z,95422.00
2023-06-14T07:21:55.028Z,95424.00
2023-06-14T07:22:55.038Z,95420.00
2023-06-14T07:23:55.058Z,95420.00
2023-06-14T07:24:55.020Z,95422.00
2023-06-14T07:25:55.007Z,95422.00
2023-06-14T07:26:55.023Z,95422.00
2023-06-14T07:27:54.997Z,95420.00
2023-06-14T07:28:54.997Z,95422.00
2023-06-14T07:29:53.983Z,95422.00
2023-06-14T07:30:54.979Z,95420.00
2023-06-14T07:31:53.954Z,95420.00
2023-06-14T07:32:55.043Z,95420.00
2023-06-14T07:33:54.110Z,95420.00
2023-06-14T07:34:54.999Z,95418.00
2023-06-14T07:35:54.938Z,95420.00
2023-06-14T07:36:53.932Z,95416.00
2023-06-14T07:37:54.929Z,95414.00
2023-06-14T07:38:53.952Z,95412.00
2023-06-14T07:39:54.945Z,95414.00
2023-06-14T07:40:54.907Z,95412.00
2023-06-14T07:41:54.957Z,95410.00
2023-06-14T07:42:54.885Z,95408.00
2023-06-14T07:43:54.907Z,95410.00
2023-06-14T07:44:54.900Z,95410.00
2023-06-14T07:46:06.255Z,95406.00
2023-06-14T07:46:54.877Z,95408.00
2023-06-14T07:47:53.931Z,95402.00
2023-06-14T07:48:54.990Z,95400.00
2023-06-14T07:49:54.973Z,95402.00
2023-06-14T07:50:54.855Z,95402.00
2023-06-14T07:51:53.827Z,95404.00
2023-06-14T07:52:54.835Z,95400.00
2023-06-14T07:53:54.823Z,95400.00
2023-06-14T07:54:54.840Z,95398.00
2023-06-14T07:55:54.873Z,95400.00
2023-06-14T07:56:54.813Z,95402.00
2023-06-14T07:57:53.783Z,95398.00
2023-06-14T07:58:54.766Z,95394.00
2023-06-14T07:59:54.774Z,95396.00
2023-06-14T08:00:53.759Z,95392.00
2023-06-14T08:01:54.781Z,95390.00
2023-06-14T08:02:58.308Z,95392.00
2023-06-14T08:03:54.857Z,95394.00
2023-06-14T08:04:53.781Z,95394.00
2023-06-14T08:05:54.763Z,95394.00
2023-06-14T08:06:54.843Z,95390.00
2023-06-14T08:07:54.718Z,95390.00
2023-06-14T08:08:54.711Z,95392.00
2023-06-14T08:09:54.702Z,95392.00
2023-06-14T08:10:54.691Z,95394.00
2023-06-14T08:11:54.712Z,95394.00
2023-06-14T08:12:54.691Z,95390.00
2023-06-14T08:13:54.683Z,95392.00
2023-06-14T08:15:08.723Z,95390.00
2023-06-14T08:15:54.697Z,95390.00
2023-06-14T08:16:54.662Z,95388.00
2023-06-14T08:17:54.744Z,95388.00
2023-06-14T08:18:54.649Z,95388.00
2023-06-14T08:19:53.666Z,95384.00
2023-06-14T08:20:54.628Z,95386.00
2023-06-14T08:21:54.623Z,95382.00
2023-06-14T08:22:53.675Z,95384.00
2023-06-14T08:23:54.660Z,95384.00
2023-06-14T08:24:54.618Z,95384.00
2023-06-14T08:25:54.615Z,95388.00
2023-06-14T08:26:54.617Z,95384.00
2023-06-14T08:27:53.652Z,95386.00
2023-06-14T08:28:53.604Z,95386.00
2023-06-14T08:29:54.594Z,95390.00
2023-06-14T08:30:54.608Z,95388.00
2023-06-14T08:31:54.566Z,95386.00
2023-06-14T08:33:10.414Z,95384.00
2023-06-14T08:33:54.626Z,95382.00
2023-06-14T08:35:04.890Z,95384.00
2023-06-14T08:35:54.524Z,95384.00
2023-06-14T08:36:54.510Z,95386.00
2023-06-14T08:37:54.504Z,95380.00
2023-06-14T08:38:54.505Z,95382.00
2023-06-14T08:39:54.516Z,95386.00
2023-06-14T08:40:53.487Z,95382.00
2023-06-14T08:41:54.476Z,95384.00
2023-06-14T08:42:54.474Z,95380.00
2023-06-14T08:43:53.486Z,95380.00
2023-06-14T08:44:53.487Z,95378.00
2023-06-14T08:45:54.458Z,95377.00
2023-06-14T08:46:54.458Z,95378.00
2023-06-14T08:47:54.578Z,95377.00
2023-06-14T08:48:54.445Z,95377.00
2023-06-14T08:49:54.496Z,95375.00
2023-06-14T08:50:55.673Z,95378.00
2023-06-14T08:51:54.421Z,95378.00
2023-06-14T08:52:53.397Z,95375.00
2023-06-14T08:53:54.404Z,95378.00
2023-06-14T08:54:54.443Z,95375.00
2023-06-14T08:55:53.504Z,95375.00
2023-06-14T08:56:54.519Z,95375.00
2023-06-14T08:57:54.572Z,95373.00
2023-06-14T08:58:54.590Z,95377.00
2023-06-14T08:59:54.048Z,95378.00
2023-06-14T09:00:54.685Z,95373.00
2023-06-14T09:02:08.163Z,95375.00
2023-06-14T09:02:54.687Z,95369.00
2023-06-14T09:03:54.776Z,95371.00
2023-06-14T09:04:54.664Z,95373.00
2023-06-14T09:05:54.659Z,95373.00
2023-06-14T09:06:53.643Z,95369.00
2023-06-14T09:07:54.638Z,95365.00
2023-06-14T09:08:54.633Z,95369.00
2023-06-14T09:10:06.681Z,95371.00
2023-06-14T09:10:54.664Z,95369.00
2023-06-14T09:11:54.619Z,95371.00
2023-06-14T09:12:53.600Z,95369.00
2023-06-14T09:13:53.613Z,95369.00
2023-06-14T09:14:54.581Z,95365.00
2023-06-14T09:15:54.656Z,95371.00
2023-06-14T09:16:53.603Z,95369.00
2023-06-14T09:17:53.569Z,95371.00
2023-06-14T09:18:54.564Z,95373.00
2023-06-14T09:19:54.604Z,95371.00
2023-06-14T09:20:53.545Z,95371.00
2023-06-14T09:21:54.544Z,95367.00
2023-06-14T09:22:54.519Z,95367.00
2023-06-14T09:23:54.583Z,95367.00
2023-06-14T09:24:54.520Z,95369.00
2023-06-14T09:25:54.499Z,95369.00
2023-06-14T09:26:54.516Z,95369.00
2023-06-14T09:27:54.508Z,95369.00
2023-06-14T09:28:54.495Z,95369.00
2023-06-14T09:29:54.518Z,95369.00
2023-06-14T09:30:54.497Z,95367.00
2023-06-14T09:31:54.500Z,95361.00
2023-06-14T09:32:54.538Z,95367.00
2023-06-14T09:33:53.476Z,95367.00
2023-06-14T09:34:54.479Z,95369.00
2023-06-14T09:35:53.513Z,95371.00
2023-06-14T09:36:54.435Z,95367.00
2023-06-14T09:37:54.425Z,95369.00
2023-06-14T09:38:53.423Z,95367.00
2023-06-14T09:39:54.457Z,95367.00
2023-06-14T09:40:54.003Z,95367.00
2023-06-14T09:41:54.393Z,95367.00
2023-06-14T09:42:54.424Z,95365.00
2023-06-14T09:43:54.452Z,95361.00
2023-06-14T09:44:54.488Z,95363.00
2023-06-14T09:45:54.580Z,95365.00
2023-06-14T09:46:53.558Z,95361.00
2023-06-14T09:48:53.617Z,95365.00
2023-06-14T09:49:54.050Z,95361.00
2023-06-14T09:50:54.599Z,95363.00
2023-06-14T09:51:54.606Z,95363.00
2023-06-14T09:52:54.600Z,95363.00
2023-06-14T09:53:54.595Z,95361.00
2023-06-14T09:54:54.568Z,95357.00
2023-06-14T09:55:54.600Z,95359.00
2023-06-14T09:56:54.538Z,95353.00
2023-06-14T09:57:54.545Z,95357.00
2023-06-14T09:59:07.052Z,95355.00
2023-06-14T09:59:54.541Z,95357.00
2023-06-14T10:00:54.497Z,95353.00
2023-06-14T10:01:54.529Z,95351.00
2023-06-14T10:02:54.531Z,95349.00
2023-06-14T10:04:07.037Z,95349.00
2023-06-14T10:04:54.636Z,95349.00
2023-06-14T10:05:54.493Z,95347.00
2023-06-14T10:06:54.521Z,95343.00
2023-06-14T10:07:54.463Z,95347.00
2023-06-14T10:08:54.458Z,95345.00
2023-06-14T10:09:54.482Z,95337.00
2023-06-14T10:10:54.497Z,95337.00
2023-06-14T10:11:53.455Z,95339.00
2023-06-14T10:12:54.442Z,95335.00
2023-06-14T10:13:54.424Z,95337.00
2023-06-14T10:14:53.412Z,95337.00
2023-06-14T10:15:54.517Z,95333.00
2023-06-14T10:16:54.545Z,95337.00
2023-06-14T10:17:54.447Z,95331.00
2023-06-14T10:18:53.407Z,95335.00
2023-06-14T10:19:53.603Z,95330.00
2023-06-14T10:20:54.375Z,95331.00
2023-06-14T10:21:53.362Z,95335.00
2023-06-14T10:22:54.356Z,95331.00
2023-06-14T10:23:54.430Z,95331.00
2023-06-14T10:24:54.343Z,95326.00
2023-06-14T10:25:54.336Z,95330.00
2023-06-14T10:26:53.336Z,95330.00
2023-06-14T10:27:54.359Z,95333.00
2023-06-14T10:28:54.373Z,95335.00
2023-06-14T10:29:54.348Z,95331.00
2023-06-14T10:30:54.305Z,95330.00
2023-06-14T10:31:54.360Z,95331.00
2023-06-14T10:32:54.358Z,95328.00
2023-06-14T10:33:54.275Z,95326.00
2023-06-14T10:34:53.282Z,95331.00
2023-06-14T10:35:54.581Z,95330.00
2023-06-14T10:36:53.362Z,95326.00
2023-06-14T10:37:53.424Z,95326.00
2023-06-14T10:38:54.422Z,95326.00
2023-06-14T10:39:54.531Z,95324.00
2023-06-14T10:40:53.573Z,95326.00
2023-06-14T10:41:54.601Z,95326.00
2023-06-14T10:42:54.738Z,95324.00
2023-06-14T10:43:54.691Z,95328.00
2023-06-14T10:44:55.027Z,95328.00
2023-06-14T10:45:54.765Z,95324.00
2023-06-14T10:46:54.839Z,95324.00
2023-06-14T10:47:56.609Z,95324.00
2023-06-14T10:48:54.851Z,95324.00
2023-06-14T10:49:54.849Z,95320.00
2023-06-14T10:50:54.832Z,95322.00
2023-06-14T10:51:54.866Z,95322.00
2023-06-14T10:52:54.819Z,95318.00
2023-06-14T10:53:54.827Z,95312.00
2023-06-14T10:54:53.812Z,95316.00
2023-06-14T10:55:54.784Z,95318.00
2023-06-14T10:56:54.789Z,95318.00
2023-06-14T10:57:55.313Z,95310.00
2023-06-14T10:58:54.801Z,95310.00
2023-06-14T10:59:54.778Z,95312.00
2023-06-14T11:00:54.779Z,95310.00
2023-06-14T11:01:53.798Z,95310.00
2023-06-14T11:02:53.772Z,95316.00
2023-06-14T11:03:54.789Z,95314.00
2023-06-14T11:04:54.729Z,95316.00
2023-06-14T11:05:54.763Z,95314.00
2023-06-14T11:06:54.728Z,95314.00
2023-06-14T11:07:54.732Z,95316.00
2023-06-14T11:08:53.696Z,95318.00
2023-06-14T11:09:54.687Z,95320.00
2023-06-14T11:10:54.740Z,95318.00
2023-06-14T11:11:54.680Z,95314.00
2023-06-14T11:12:54.666Z,95318.00
2023-06-14T11:13:53.708Z,95318.00
2023-06-14T11:14:54.654Z,95316.00
2023-06-14T11:15:54.724Z,95314.00
2023-06-14T11:16:53.645Z,95314.00
2023-06-14T11:17:54.705Z,95314.00
2023-06-14T11:18:54.684Z,95312.00
2023-06-14T11:19:54.704Z,95314.00
2023-06-14T11:20:54.734Z,95318.00
2023-06-14T11:21:54.780Z,95314.00
2023-06-14T11:22:54.807Z,95312.00
2023-06-14T11:23:54.893Z,95312.00
2023-06-14T11:24:54.834Z,95306.00
2023-06-14T11:25:55.571Z,95308.00
2023-06-14T11:26:53.949Z,95308.00
2023-06-14T11:27:54.013Z,95304.00
2023-06-14T11:28:54.957Z,95304.00
2023-06-14T11:29:54.975Z,95304.00
2023-06-14T11:30:54.962Z,95308.00
2023-06-14T11:31:55.053Z,95306.00
2023-06-14T11:32:58.318Z,95304.00
2023-06-14T11:33:54.065Z,95302.00
2023-06-14T11:34:55.101Z,95306.00
2023-06-14T11:35:54.061Z,95304.00
2023-06-14T11:36:55.080Z,95298.00
2023-06-14T11:37:55.048Z,95298.00
2023-06-14T11:38:56.025Z,95298.00
2023-06-14T11:39:55.108Z,95298.00
2023-06-14T11:40:55.055Z,95294.00
2023-06-14T11:41:55.018Z,95296.00
2023-06-14T11:42:54.032Z,95292.00
2023-06-14T11:43:54.997Z,95296.00
2023-06-14T11:45:00.945Z,95292.00
2023-06-14T11:46:07.369Z,95291.00
2023-06-14T11:46:54.979Z,95289.00
2023-06-14T11:47:55.013Z,95291.00